Terminal Aerodrome Forecast
Issued by NWS Jackson, MS

Home | Current Version | Previous Version | Text Only | Print | Product List | Glossary On
Versions: 1 2 3 4 5 6 7 8 9 10 11 12
921
FTUS44 KJAN 231139
TAFJAN
TAF
KJAN 231139Z 2312/2412 19004KT 3SM BR BKN003
     FM231400 VRB03KT P6SM SCT030
     FM231800 22004KT P6SM VCTS SCT050CB
     FM232300 36015G25KT 3SM TSRA BKN035CB
     FM240200 14003KT P6SM BKN250=

USA.gov is the U.S. government's official web portal to all federal, state and local government web resources and services.